createdAt,value
2023-03-06T00:00:59.534Z,59.21
2023-03-06T00:03:28.238Z,59.37
2023-03-06T00:06:00.456Z,59.60
2023-03-06T00:08:28.606Z,59.65
2023-03-06T00:11:04.270Z,59.78
2023-03-06T00:13:35.255Z,59.86
2023-03-06T00:16:07.108Z,60.11
2023-03-06T00:18:35.655Z,60.06
2023-03-06T00:21:10.974Z,60.13
2023-03-06T00:23:41.569Z,60.02
2023-03-06T00:26:11.903Z,60.14
2023-03-06T00:28:41.110Z,60.13
2023-03-06T00:31:15.098Z,60.26
2023-03-06T00:33:45.530Z,60.35
2023-03-06T00:36:15.582Z,60.95
2023-03-06T00:38:43.441Z,61.63
2023-03-06T00:41:12.421Z,61.88
2023-03-06T00:43:40.483Z,62.47
2023-03-06T00:46:09.260Z,63.09
2023-03-06T00:48:38.043Z,63.78
2023-03-06T00:51:12.807Z,64.20
2023-03-06T00:53:41.837Z,64.93
2023-03-06T00:56:11.845Z,65.62
2023-03-06T00:58:41.391Z,65.96
2023-03-06T01:01:09.892Z,66.50
2023-03-06T01:03:37.828Z,66.75
2023-03-06T01:06:07.814Z,67.10
2023-03-06T01:08:37.858Z,67.49
2023-03-06T01:11:07.015Z,67.72
2023-03-06T01:13:35.065Z,67.99
2023-03-06T01:16:08.353Z,68.34
2023-03-06T01:18:36.816Z,68.58
2023-03-06T01:21:05.121Z,68.66
2023-03-06T01:23:33.198Z,68.94
2023-03-06T01:26:01.192Z,69.08
2023-03-06T01:28:29.675Z,69.35
2023-03-06T01:30:57.703Z,69.34
2023-03-06T01:33:26.095Z,69.44
2023-03-06T01:35:54.052Z,69.37
2023-03-06T01:38:24.446Z,69.80
2023-03-06T01:40:52.250Z,69.92
2023-03-06T01:43:29.539Z,70.13
2023-03-06T01:46:28.434Z,70.07
2023-03-06T01:49:04.905Z,70.32
2023-03-06T01:51:53.235Z,70.37
2023-03-06T01:54:26.892Z,70.45
2023-03-06T01:57:00.987Z,70.61
2023-03-06T01:59:29.067Z,70.94
2023-03-06T02:02:04.626Z,71.22
2023-03-06T02:04:33.382Z,71.31
2023-03-06T02:07:04.826Z,71.70
2023-03-06T02:09:35.877Z,71.79
2023-03-06T02:12:10.092Z,71.89
2023-03-06T02:14:38.722Z,71.82
2023-03-06T02:19:18.688Z,71.76
2023-03-06T02:21:46.637Z,71.83
2023-03-06T02:24:33.164Z,72.01
2023-03-06T02:27:01.420Z,71.88
2023-03-06T02:29:34.782Z,71.94
2023-03-06T02:32:05.038Z,72.16
2023-03-06T02:34:40.225Z,72.24
2023-03-06T02:37:09.388Z,72.10
2023-03-06T02:39:43.038Z,72.14
2023-03-06T02:42:12.520Z,72.41
2023-03-06T02:44:40.468Z,72.51
2023-03-06T02:47:08.440Z,72.74
2023-03-06T02:49:37.390Z,72.76
2023-03-06T02:52:07.634Z,72.58
2023-03-06T02:54:35.636Z,72.64
2023-03-06T02:57:03.826Z,72.63
2023-03-06T02:59:34.932Z,72.82
2023-03-06T03:02:03.200Z,73.20
2023-03-06T03:04:31.956Z,73.11
2023-03-06T03:07:00.745Z,73.36
2023-03-06T03:09:29.067Z,73.06
2023-03-06T03:11:59.758Z,73.36
2023-03-06T03:14:27.858Z,73.30
2023-03-06T03:16:55.989Z,73.28
2023-03-06T03:19:25.684Z,73.32
2023-03-06T03:21:53.662Z,73.23
2023-03-06T03:24:26.149Z,73.42
2023-03-06T03:26:55.452Z,73.46
2023-03-06T03:29:24.020Z,73.68
2023-03-06T03:31:52.040Z,73.53
2023-03-06T03:34:20.623Z,73.38
2023-03-06T03:36:48.509Z,73.43
2023-03-06T03:39:18.966Z,73.36
2023-03-06T03:41:47.494Z,73.50
2023-03-06T03:44:16.801Z,73.53
2023-03-06T03:46:48.104Z,73.95
2023-03-06T03:49:19.921Z,73.90
2023-03-06T03:51:54.100Z,73.91
2023-03-06T03:54:22.506Z,74.03
2023-03-06T03:56:50.776Z,73.94
2023-03-06T03:59:25.407Z,73.94
2023-03-06T04:02:04.928Z,74.12
2023-03-06T04:04:36.286Z,74.23
2023-03-06T04:07:04.637Z,74.04
2023-03-06T04:09:33.012Z,74.19
2023-03-06T04:12:01.065Z,74.02
2023-03-06T04:14:29.904Z,73.74
2023-03-06T04:16:58.719Z,73.90
2023-03-06T04:19:29.528Z,73.95
2023-03-06T04:21:58.642Z,73.86
2023-03-06T04:24:27.081Z,74.16
2023-03-06T04:26:55.576Z,74.10
2023-03-06T04:29:24.271Z,74.32
2023-03-06T04:31:52.242Z,73.93
2023-03-06T04:34:22.561Z,74.14
2023-03-06T04:36:50.693Z,74.07
2023-03-06T04:39:18.769Z,73.90
2023-03-06T04:41:47.889Z,73.86
2023-03-06T04:44:16.124Z,73.78
2023-03-06T04:46:43.928Z,73.78
2023-03-06T04:49:11.822Z,73.73
2023-03-06T04:51:39.742Z,74.02
2023-03-06T04:54:08.771Z,74.05
2023-03-06T04:56:36.712Z,73.90
2023-03-06T04:59:05.124Z,74.10
2023-03-06T05:01:33.505Z,74.01
2023-03-06T05:04:01.752Z,74.02
2023-03-06T05:06:30.220Z,74.04
2023-03-06T05:08:58.206Z,74.13
2023-03-06T05:11:26.037Z,74.11
2023-03-06T05:13:53.970Z,74.05
2023-03-06T05:16:23.302Z,74.06
2023-03-06T05:18:51.482Z,74.07
2023-03-06T05:21:19.509Z,74.06
2023-03-06T05:23:48.589Z,74.26
2023-03-06T05:26:16.984Z,73.89
2023-03-06T05:28:44.838Z,74.38
2023-03-06T05:31:13.850Z,74.05
2023-03-06T05:33:44.027Z,74.14
2023-03-06T05:36:14.252Z,74.18
2023-03-06T05:38:47.929Z,74.04
2023-03-06T05:41:15.791Z,73.62
2023-03-06T05:43:43.775Z,73.56
2023-03-06T05:46:12.164Z,73.01
2023-03-06T05:48:40.137Z,72.78
2023-03-06T05:51:08.194Z,72.34
2023-03-06T05:53:37.467Z,72.23
2023-03-06T05:56:09.000Z,71.61
2023-03-06T05:58:37.796Z,71.44
2023-03-06T06:01:10.144Z,71.25
2023-03-06T06:03:38.704Z,70.90
2023-03-06T06:06:07.461Z,70.81
2023-03-06T06:08:36.045Z,70.95
2023-03-06T06:11:10.140Z,70.98
2023-03-06T06:13:39.584Z,70.99
2023-03-06T06:16:15.778Z,70.90
2023-03-06T06:18:44.274Z,71.05
2023-03-06T06:21:12.721Z,71.27
2023-03-06T06:23:41.181Z,70.32
2023-03-06T06:26:09.221Z,69.50
2023-03-06T06:28:38.492Z,68.88
2023-03-06T06:31:12.863Z,68.19
2023-03-06T06:33:43.081Z,67.66
2023-03-06T06:36:20.050Z,66.91
2023-03-06T06:38:48.453Z,66.85
2023-03-06T06:41:54.945Z,66.83
2023-03-06T06:44:11.286Z,66.82
2023-03-06T06:49:28.262Z,66.59
2023-03-06T06:51:57.160Z,65.88
2023-03-06T06:54:25.097Z,64.80
2023-03-06T06:56:53.457Z,64.22
2023-03-06T06:59:23.814Z,63.49
2023-03-06T07:01:52.524Z,62.40
2023-03-06T07:04:20.632Z,61.35
2023-03-06T07:06:48.564Z,59.63
2023-03-06T07:09:16.867Z,58.22
2023-03-06T07:11:44.720Z,57.90
2023-03-06T07:14:13.115Z,57.46
2023-03-06T07:16:41.401Z,57.39
2023-03-06T07:19:12.439Z,56.95
2023-03-06T07:21:40.784Z,56.86
2023-03-06T07:24:08.686Z,56.56
2023-03-06T07:26:37.598Z,56.92
2023-03-06T07:29:06.994Z,56.89
2023-03-06T07:31:37.785Z,57.07
2023-03-06T07:34:05.949Z,57.47
2023-03-06T07:36:34.753Z,57.61
2023-03-06T07:39:09.397Z,57.90
2023-03-06T07:41:37.791Z,58.00
2023-03-06T07:44:09.615Z,57.71
2023-03-06T07:46:37.657Z,57.92
2023-03-06T07:49:05.692Z,58.30
2023-03-06T07:51:34.470Z,58.53
2023-03-06T07:54:02.543Z,58.46
2023-03-06T07:56:30.592Z,58.36
2023-03-06T07:58:58.552Z,58.32
2023-03-06T08:01:26.674Z,58.34
2023-03-06T08:03:54.748Z,58.48
2023-03-06T08:06:26.115Z,58.77
2023-03-06T08:08:58.860Z,58.75
2023-03-06T08:11:28.460Z,58.77
2023-03-06T08:13:59.104Z,58.93
2023-03-06T08:16:29.634Z,58.43
2023-03-06T08:18:58.405Z,57.76
2023-03-06T08:21:27.379Z,57.51
2023-03-06T08:23:55.257Z,57.75
2023-03-06T08:26:27.980Z,58.00
2023-03-06T08:28:56.994Z,58.17
2023-03-06T08:31:33.541Z,58.29
2023-03-06T08:34:03.516Z,58.25
2023-03-06T08:36:36.717Z,58.89
2023-03-06T08:39:04.708Z,59.06
2023-03-06T08:41:33.021Z,58.17
2023-03-06T08:44:01.513Z,57.60
2023-03-06T08:46:29.685Z,57.12
2023-03-06T08:48:59.830Z,57.17
2023-03-06T08:51:29.147Z,57.36
2023-03-06T08:53:58.342Z,57.12
2023-03-06T08:56:31.097Z,56.45
2023-03-06T08:59:00.467Z,55.59
2023-03-06T09:01:29.924Z,55.18
2023-03-06T09:04:17.729Z,54.75
2023-03-06T09:06:45.819Z,54.62
2023-03-06T09:09:13.684Z,54.79
2023-03-06T09:11:42.890Z,54.54
2023-03-06T09:14:11.116Z,54.37
2023-03-06T09:16:39.144Z,54.46
2023-03-06T09:19:07.109Z,54.03
2023-03-06T09:21:35.131Z,53.67
2023-03-06T09:24:04.683Z,53.33
2023-03-06T09:26:44.964Z,53.31
2023-03-06T09:29:17.469Z,53.29
2023-03-06T09:31:48.101Z,52.98
2023-03-06T09:34:15.986Z,52.64
2023-03-06T09:36:56.417Z,52.77
2023-03-06T09:39:25.780Z,52.30
2023-03-06T09:41:53.588Z,52.57
2023-03-06T09:44:26.052Z,52.08
2023-03-06T09:47:20.093Z,50.98
2023-03-06T09:49:54.261Z,50.95
2023-03-06T09:52:53.921Z,50.92
2023-03-06T09:55:24.154Z,51.03
2023-03-06T09:58:13.614Z,50.91
2023-03-06T10:01:17.821Z,50.99
2023-03-06T10:03:58.321Z,50.93
2023-03-06T10:06:45.709Z,51.16
2023-03-06T10:09:17.068Z,50.90
2023-03-06T10:12:00.794Z,51.03
2023-03-06T10:14:40.137Z,51.19
2023-03-06T10:17:12.985Z,51.55
2023-03-06T10:19:41.301Z,51.49
2023-03-06T10:22:26.374Z,51.09
2023-03-06T10:25:12.816Z,50.52
2023-03-06T10:27:54.070Z,49.74
2023-03-06T10:30:46.623Z,49.46
2023-03-06T10:33:22.931Z,49.64
2023-03-06T10:35:54.061Z,49.76
2023-03-06T10:38:42.407Z,49.47
2023-03-06T10:41:12.850Z,49.00
2023-03-06T10:44:03.534Z,48.87
2023-03-06T10:46:45.006Z,48.45
2023-03-06T10:49:14.053Z,48.37
2023-03-06T10:51:55.119Z,48.14
2023-03-06T10:54:26.048Z,48.24
2023-03-06T10:56:54.074Z,48.14
2023-03-06T10:59:28.435Z,47.44
2023-03-06T11:01:59.184Z,47.59
2023-03-06T11:04:32.599Z,47.63
2023-03-06T11:07:20.761Z,46.90
2023-03-06T11:09:57.761Z,45.65
2023-03-06T11:12:28.998Z,44.81
2023-03-06T11:15:17.538Z,44.90
2023-03-06T11:18:02.059Z,43.97
2023-03-06T11:20:53.404Z,43.97
2023-03-06T11:23:46.703Z,43.66
2023-03-06T11:26:17.626Z,43.39
2023-03-06T11:28:48.551Z,42.62
2023-03-06T11:31:18.639Z,42.06
2023-03-06T11:33:54.285Z,42.07
2023-03-06T11:36:28.136Z,41.73
2023-03-06T11:38:56.209Z,41.89
2023-03-06T11:41:33.320Z,41.85
2023-03-06T11:44:06.745Z,41.63
2023-03-06T11:46:38.915Z,41.31
2023-03-06T11:49:32.118Z,40.94
2023-03-06T11:52:03.455Z,40.47
2023-03-06T11:54:33.553Z,40.76
2023-03-06T11:57:14.823Z,40.91
2023-03-06T12:00:07.627Z,40.02
2023-03-06T12:02:50.545Z,39.69
2023-03-06T12:05:38.375Z,40.42
2023-03-06T12:08:28.644Z,41.19
2023-03-06T12:13:55.416Z,41.23
2023-03-06T12:16:58.616Z,41.13
2023-03-06T12:19:30.695Z,41.49
2023-03-06T12:22:21.190Z,41.28
2023-03-06T12:25:06.202Z,41.40
2023-03-06T12:27:55.082Z,41.22
2023-03-06T12:30:26.556Z,40.92
2023-03-06T12:33:16.759Z,40.70
2023-03-06T12:35:48.794Z,40.51
2023-03-06T12:38:45.209Z,40.51
2023-03-06T12:41:46.795Z,40.61
2023-03-06T12:44:27.066Z,40.40
2023-03-06T12:46:58.237Z,39.94
2023-03-06T12:49:32.338Z,39.87
2023-03-06T12:52:03.742Z,40.10
2023-03-06T12:54:37.574Z,39.98
2023-03-06T12:57:06.863Z,40.04
2023-03-06T12:59:36.351Z,40.00
2023-03-06T13:02:13.576Z,40.00
2023-03-06T13:05:05.501Z,40.09
2023-03-06T13:07:52.777Z,40.18
2023-03-06T13:10:24.464Z,39.87
2023-03-06T13:13:29.895Z,39.84
2023-03-06T13:16:03.839Z,39.97
2023-03-06T13:18:35.192Z,39.90
2023-03-06T13:21:04.499Z,39.87
2023-03-06T13:23:33.592Z,40.04
2023-03-06T13:26:03.452Z,39.34
2023-03-06T13:28:50.626Z,39.36
2023-03-06T13:31:36.838Z,39.59
2023-03-06T13:34:26.693Z,39.27
2023-03-06T13:37:23.447Z,39.17
2023-03-06T13:39:54.884Z,38.52
2023-03-06T13:42:39.734Z,38.51
2023-03-06T13:45:28.119Z,38.58
2023-03-06T13:48:24.501Z,38.61
2023-03-06T13:50:47.135Z,38.57
2023-03-06T13:53:23.645Z,38.25
2023-03-06T13:56:21.444Z,38.11
2023-03-06T13:59:00.238Z,38.05
2023-03-06T14:01:50.528Z,37.98
2023-03-06T14:04:53.412Z,38.23
2023-03-06T14:07:28.972Z,38.33
2023-03-06T14:10:23.007Z,38.51
2023-03-06T14:12:51.276Z,38.73
2023-03-06T14:15:42.935Z,38.71
2023-03-06T14:18:15.763Z,39.21
2023-03-06T14:21:03.566Z,39.59
2023-03-06T14:23:38.056Z,39.41
2023-03-06T14:26:19.124Z,39.60
2023-03-06T14:28:52.938Z,40.04
2023-03-06T14:31:41.357Z,40.52
2023-03-06T14:34:26.338Z,40.78
2023-03-06T14:37:39.233Z,40.91
2023-03-06T14:40:11.472Z,41.36
2023-03-06T14:42:39.315Z,41.82
2023-03-06T14:45:16.411Z,41.70
2023-03-06T14:47:52.225Z,41.76
2023-03-06T14:50:28.397Z,41.77
2023-03-06T14:53:14.358Z,42.32
2023-03-06T14:55:50.911Z,42.19
2023-03-06T14:58:37.017Z,42.70
2023-03-06T15:01:06.613Z,42.88
2023-03-06T15:03:50.935Z,43.47
2023-03-06T15:06:24.383Z,43.72
2023-03-06T15:09:00.501Z,43.74
2023-03-06T15:12:02.283Z,43.88
2023-03-06T15:14:38.921Z,44.17
2023-03-06T15:17:19.162Z,44.16
2023-03-06T15:19:48.698Z,44.59
2023-03-06T15:22:38.862Z,44.56
2023-03-06T15:25:20.097Z,44.63
2023-03-06T15:28:14.726Z,44.64
2023-03-06T15:30:44.584Z,44.55
2023-03-06T15:33:19.631Z,44.58
2023-03-06T15:35:59.166Z,44.57
2023-03-06T15:38:35.366Z,44.68
2023-03-06T15:41:04.280Z,44.21
2023-03-06T15:43:36.528Z,43.80
2023-03-06T15:46:05.200Z,43.68
2023-03-06T15:48:35.299Z,43.53
2023-03-06T15:51:03.613Z,43.43
2023-03-06T15:53:35.936Z,43.69
2023-03-06T15:56:03.998Z,43.59
2023-03-06T15:58:32.141Z,43.67
2023-03-06T16:01:00.657Z,44.00
2023-03-06T16:03:30.787Z,43.99
2023-03-06T16:05:58.848Z,43.94
2023-03-06T16:08:26.668Z,44.52
2023-03-06T16:10:59.584Z,45.19
2023-03-06T16:13:28.358Z,45.26
2023-03-06T16:15:56.879Z,46.00
2023-03-06T16:18:27.691Z,46.37
2023-03-06T16:20:56.378Z,46.65
2023-03-06T16:23:28.890Z,46.87
2023-03-06T16:25:57.089Z,47.18
2023-03-06T16:28:28.744Z,47.57
2023-03-06T16:30:57.778Z,47.84
2023-03-06T16:33:27.178Z,47.63
2023-03-06T16:35:58.839Z,48.32
2023-03-06T16:38:28.176Z,48.02
2023-03-06T16:40:56.073Z,48.48
2023-03-06T16:43:25.995Z,48.81
2023-03-06T16:45:57.038Z,48.75
2023-03-06T16:48:30.878Z,49.06
2023-03-06T16:50:58.858Z,49.41
2023-03-06T16:53:31.426Z,49.55
2023-03-06T16:55:59.627Z,50.22
2023-03-06T16:58:28.414Z,50.75
2023-03-06T17:00:56.391Z,51.22
2023-03-06T17:03:26.905Z,51.30
2023-03-06T17:05:57.929Z,51.70
2023-03-06T17:08:26.775Z,52.20
2023-03-06T17:10:56.828Z,52.28
2023-03-06T17:13:44.567Z,52.82
2023-03-06T17:16:15.946Z,53.03
2023-03-06T17:18:46.213Z,53.36
2023-03-06T17:21:17.368Z,53.59
2023-03-06T17:23:45.313Z,53.88
2023-03-06T17:26:18.973Z,54.31
2023-03-06T17:28:49.712Z,54.70
2023-03-06T17:31:21.993Z,54.85
2023-03-06T17:33:51.426Z,54.88
2023-03-06T17:36:20.031Z,55.14
2023-03-06T17:38:48.072Z,55.41
2023-03-06T17:41:16.035Z,55.82
2023-03-06T17:43:44.032Z,55.84
2023-03-06T17:46:12.849Z,56.01
2023-03-06T17:48:41.109Z,56.21
2023-03-06T17:51:10.009Z,56.47
2023-03-06T17:53:39.275Z,56.54
2023-03-06T17:56:08.482Z,56.68
2023-03-06T17:58:37.719Z,56.94
2023-03-06T18:01:12.699Z,57.01
2023-03-06T18:04:02.304Z,57.19
2023-03-06T18:06:33.481Z,57.17
2023-03-06T18:09:05.460Z,57.28
2023-03-06T18:11:33.373Z,57.54
2023-03-06T18:14:02.100Z,57.64
2023-03-06T18:16:51.028Z,57.74
2023-03-06T18:19:22.938Z,58.14
2023-03-06T18:21:50.797Z,58.32
2023-03-06T18:24:21.646Z,58.68
2023-03-06T18:26:50.721Z,58.92
2023-03-06T18:29:18.581Z,58.93
2023-03-06T18:31:50.089Z,59.19
2023-03-06T18:34:18.574Z,59.29
2023-03-06T18:36:50.702Z,59.48
2023-03-06T18:39:19.314Z,59.57
2023-03-06T18:41:47.408Z,59.82
2023-03-06T18:44:16.391Z,60.06
2023-03-06T18:46:44.325Z,60.05
2023-03-06T18:49:12.847Z,60.22
2023-03-06T18:51:46.981Z,60.48
2023-03-06T18:54:15.012Z,60.68
2023-03-06T18:56:44.590Z,61.02
2023-03-06T18:59:32.341Z,61.15
2023-03-06T19:02:00.486Z,61.39
2023-03-06T19:04:28.798Z,61.45
2023-03-06T19:06:56.981Z,61.53
2023-03-06T19:09:24.869Z,61.69
2023-03-06T19:11:54.847Z,61.88
2023-03-06T19:14:29.475Z,62.05
2023-03-06T19:16:57.514Z,62.15
2023-03-06T19:19:26.464Z,62.28
2023-03-06T19:21:54.393Z,62.47
2023-03-06T19:24:27.729Z,62.70
2023-03-06T19:26:55.798Z,62.87
2023-03-06T19:29:26.301Z,62.90
2023-03-06T19:31:57.328Z,63.00
2023-03-06T19:34:27.830Z,63.09
2023-03-06T19:36:55.895Z,63.40
2023-03-06T19:39:26.218Z,63.55
2023-03-06T19:41:54.186Z,63.65
2023-03-06T19:44:23.267Z,63.86
2023-03-06T19:46:51.341Z,64.13
2023-03-06T19:49:21.848Z,64.00
2023-03-06T19:51:50.100Z,63.92
2023-03-06T19:54:24.369Z,64.15
2023-03-06T19:56:53.314Z,64.06
2023-03-06T19:59:21.878Z,64.37
2023-03-06T20:01:51.811Z,64.60
2023-03-06T20:04:19.843Z,64.65
2023-03-06T20:06:50.448Z,64.56
2023-03-06T20:09:21.146Z,64.64
2023-03-06T20:11:49.643Z,64.68
2023-03-06T20:14:18.945Z,65.06
2023-03-06T20:16:47.327Z,65.13
2023-03-06T20:19:17.791Z,65.27
2023-03-06T20:21:45.681Z,65.30
2023-03-06T20:24:17.900Z,65.27
2023-03-06T20:26:46.892Z,65.45
2023-03-06T20:29:14.905Z,65.51
2023-03-06T20:31:47.308Z,65.82
2023-03-06T20:34:16.254Z,65.95
2023-03-06T20:36:44.154Z,65.99
2023-03-06T20:39:16.317Z,66.18
2023-03-06T20:41:44.417Z,66.39
2023-03-06T20:44:15.055Z,66.59
2023-03-06T20:46:44.403Z,66.61
2023-03-06T20:49:18.048Z,66.64
2023-03-06T20:51:46.529Z,66.68
2023-03-06T20:54:17.534Z,66.70
2023-03-06T20:56:48.729Z,66.94
2023-03-06T20:59:18.131Z,66.94
2023-03-06T21:01:46.886Z,67.12
2023-03-06T21:04:16.746Z,67.22
2023-03-06T21:06:47.295Z,67.49
2023-03-06T21:09:16.601Z,67.69
2023-03-06T21:11:44.921Z,67.85
2023-03-06T21:14:14.719Z,67.90
2023-03-06T21:16:50.044Z,67.90
2023-03-06T21:19:20.069Z,67.90
2023-03-06T21:21:50.356Z,67.94
2023-03-06T21:24:20.348Z,68.06
2023-03-06T21:26:51.293Z,68.12
2023-03-06T21:29:19.341Z,68.12
2023-03-06T21:31:48.676Z,68.26
2023-03-06T21:34:17.887Z,68.48
2023-03-06T21:36:45.813Z,68.67
2023-03-06T21:39:13.945Z,68.99
2023-03-06T21:41:41.852Z,69.30
2023-03-06T21:44:10.384Z,69.34
2023-03-06T21:46:38.637Z,69.52
2023-03-06T21:49:06.804Z,69.74
2023-03-06T21:51:35.842Z,69.93
2023-03-06T21:54:03.953Z,69.99
2023-03-06T21:56:35.816Z,70.26
2023-03-06T21:59:04.004Z,70.44
2023-03-06T22:01:31.925Z,70.79
2023-03-06T22:04:00.599Z,71.19
2023-03-06T22:06:29.368Z,71.27
2023-03-06T22:08:59.994Z,71.32
2023-03-06T22:11:31.318Z,71.54
2023-03-06T22:13:59.808Z,71.58
2023-03-06T22:16:31.715Z,71.70
2023-03-06T22:19:00.626Z,71.87
2023-03-06T22:21:29.799Z,71.75
2023-03-06T22:24:02.764Z,72.05
2023-03-06T22:26:31.196Z,72.02
2023-03-06T22:29:00.809Z,72.22
2023-03-06T22:31:31.401Z,72.24
2023-03-06T22:34:02.169Z,72.33
2023-03-06T22:36:30.660Z,72.63
2023-03-06T22:39:01.849Z,72.73
2023-03-06T22:41:30.365Z,72.72
2023-03-06T22:44:00.121Z,72.68
2023-03-06T22:46:30.265Z,72.77
2023-03-06T22:48:59.204Z,72.65
2023-03-06T22:51:27.560Z,72.88
2023-03-06T22:53:58.369Z,73.07
2023-03-06T22:56:30.141Z,73.26
2023-03-06T22:59:00.649Z,73.30
2023-03-06T23:01:31.518Z,73.34
2023-03-06T23:04:00.983Z,73.40
2023-03-06T23:06:34.015Z,73.20
2023-03-06T23:09:16.134Z,73.15
2023-03-06T23:12:03.856Z,73.13
2023-03-06T23:14:51.363Z,73.08
2023-03-06T23:17:39.705Z,73.03
2023-03-06T23:20:28.432Z,72.80
2023-03-06T23:23:21.982Z,72.64
2023-03-06T23:25:52.298Z,72.46
2023-03-06T23:28:20.222Z,72.45
2023-03-06T23:30:48.280Z,72.40
2023-03-06T23:33:18.331Z,72.28
2023-03-06T23:35:47.635Z,72.40
2023-03-06T23:38:15.621Z,72.30
2023-03-06T23:40:44.601Z,72.33
2023-03-06T23:43:12.707Z,72.08
2023-03-06T23:45:40.923Z,72.02
2023-03-06T23:48:09.061Z,71.99
2023-03-06T23:50:39.759Z,71.81
2023-03-06T23:53:09.128Z,71.82
2023-03-06T23:55:46.692Z,71.85
2023-03-06T23:58:16.780Z,71.86
